Flight Track Log - Related Links

Times and Time Zones

All times are in EDT time to prevent confusion due to time zone crossing. See the FLG3862 flight status page for this flight to view local times or setup timezone preferences in your user account.

Time Position Orientation Groundspeed Altitude Reporting Facility
EDT Latitude Longitude Course Direction KTS MPH feet Rate Location/Type
Mon 10:47:38 AM 42.2017 -83.3553 173° South 148 170 1,400  Level Cleveland Center
Mon 10:49:10 AM 42.1289 -83.3439 173° South 213 245 4,600 2,416 Climbing Cleveland Center
Mon 10:50:12 AM 42.0839 -83.3056 148° Southeast 257 296 7,600 2,365 Climbing Cleveland Center
Mon 10:51:27 AM 42.1142 -83.1725 73° East 294 338 10,000 1,733 Climbing Cleveland Center
Mon 10:52:27 AM 42.1503 -83.0478 69° East 325 374 11,500 1,750 Climbing Cleveland Center
Mon 10:53:27 AM 42.1967 -82.9292 62° Northeast 348 400 13,500 1,850 Climbing Cleveland Center
Mon 10:54:27 AM 42.2428 -82.7989 64° Northeast 366 421 15,200 1,700 Climbing Cleveland Center
Mon 10:55:27 AM 42.2914 -82.6631 64° Northeast 378 435 16,900 1,700 Climbing Cleveland Center
Mon 10:56:27 AM 42.3394 -82.5297 64° Northeast 389 448 18,600 1,650 Climbing Cleveland Center
Mon 10:57:27 AM 42.3647 -82.3817 77° East 394 453 20,200 1,500 Climbing Cleveland Center
Mon 10:58:27 AM 42.3589 -82.2297 93° East 394 453 21,600 1,350 Climbing Cleveland Center
Mon 10:59:27 AM 42.3506 -82.0722 94° East 406 467 22,900 1,500 Climbing Cleveland Center
Mon 11:00:27 AM 42.3461 -81.9175 92° East 417 480 24,600 1,050 Climbing Cleveland Center
Mon 11:01:27 AM 42.3375 -81.7572 94° East 417 480 25,000 200 Climbing Cleveland Center
Mon 11:02:27 AM 42.3308 -81.5914 93° East 438 504 25,000 150 Level Cleveland Center
Mon 11:03:27 AM 42.3258 -81.4342 92° East 455 524 25,300 700 Climbing Cleveland Center
Mon 11:04:27 AM 42.3144 -81.2569 95° East 472 543 26,400 1,050 Climbing Cleveland Center
Mon 11:05:27 AM 42.3050 -81.0858 94° East 467 537 27,400 900 Climbing Cleveland Center
Mon 11:06:27 AM 42.2972 -80.9117 93° East 462 532 28,200 750 Climbing Cleveland Center
Mon 11:07:27 AM 42.2933 -80.7403 92° East 457 526 28,900 400 Climbing Cleveland Center
Mon 11:08:27 AM 42.3311 -80.5550 75° East 452 520 29,000 50 Climbing Cleveland Center
Mon 11:09:27 AM 42.3683 -80.3836 74° East 466 536 29,000  Level Cleveland Center
Mon 11:10:27 AM 42.4053 -80.2036 74° East 481 554 29,000  Level Cleveland Center
Mon 11:11:27 AM 42.4400 -80.0289 75° East 481 554 29,000  Level Cleveland Center
Mon 11:12:27 AM 42.4769 -79.8767 72° East 474 545 29,000  Level Cleveland Center
Mon 11:13:27 AM 42.5089 -79.7044 76° East 474 545 29,000  Level Cleveland Center
Mon 11:14:27 AM 42.5450 -79.5378 74° East 469 540 29,000  Level Cleveland Center
Mon 11:15:27 AM 42.5789 -79.3678 75° East 464 534 29,000  Level Cleveland Center
Mon 11:16:27 AM 42.6125 -79.1981 75° East 459 528 29,000  Level Cleveland Center
Mon 11:17:27 AM 42.6456 -79.0278 75° East 459 528 29,000  Level Cleveland Center
Mon 11:18:26 AM 42.6786 -78.8578 75° East 454 522 29,000  Level Cleveland Center
Mon 11:19:27 AM 42.7136 -78.6842 75° East 454 522 29,000  Level Cleveland Center
Mon 11:20:27 AM 42.7481 -78.5136 75° East 454 522 29,000  Level Cleveland Center
Mon 11:21:27 AM 42.7781 -78.3400 77° East 459 528 29,000  Level Cleveland Center
Mon 11:22:27 AM 42.8103 -78.1692 76° East 459 528 29,000  Level Cleveland Center
Mon 11:23:27 AM 42.8419 -77.9950 76° East 459 528 29,000  Level Cleveland Center
Mon 11:24:27 AM 42.8769 -77.8067 76° East 459 528 29,000  Level Cleveland Center
Mon 11:25:27 AM 42.9186 -77.6375 71° East 459 528 29,000  Level Cleveland Center
Mon 11:26:27 AM 42.9856 -77.4839 59° Northeast 459 528 29,000  Level Cleveland Center
Mon 11:28:03 AM 43.0867 -77.2486 59° Northeast 450 518 29,000  Level Boston Center
Mon 11:29:03 AM 43.1400 -77.1247 59° Northeast 455 524 29,000  Level Boston Center
Mon 11:30:04 AM 43.2183 -76.9394 60° Northeast 455 524 29,000  Level Boston Center
Mon 11:31:01 AM 43.2803 -76.7900 60° Northeast 455 524 29,000  Level Boston Center
Mon 11:32:02 AM 43.3397 -76.6544 59° Northeast 450 518 29,000  Level Boston Center
Mon 11:33:02 AM 43.4014 -76.5042 61° Northeast 455 524 29,000  Level Boston Center
Mon 11:34:02 AM 43.4628 -76.3567 60° Northeast 450 518 29,000  Level Boston Center
Mon 11:35:03 AM 43.5222 -76.2058 61° Northeast 450 518 29,000  Level Boston Center
Mon 11:36:02 AM 43.5831 -76.0606 60° Northeast 443 510 29,000  Level Boston Center
Mon 11:37:02 AM 43.6419 -75.9092 62° Northeast 443 510 29,000  Level Boston Center
Mon 11:38:03 AM 43.7072 -75.7461 61° Northeast 443 510 29,000  Level Boston Center
Mon 11:39:04 AM 43.7533 -75.5878 68° East 443 510 29,000  Level Boston Center
Mon 11:40:01 AM 43.7994 -75.4261 68° East 443 510 29,000  Level Boston Center
Mon 11:41:02 AM 43.8319 -75.2981 71° East 443 510 29,000  Level Boston Center
Mon 11:42:03 AM 43.8867 -75.1019 69° East 443 510 29,000 -595 Level Boston Center
Mon 11:43:03 AM 43.9319 -74.9425 68° East 443 510 27,800 -1,678 Descending Boston Center
Mon 11:44:01 AM 43.9772 -74.7742 69° East 448 516 25,700 -2,169 Descending Boston Center
Mon 11:45:13 AM 44.0311 -74.5769 69° East 448 516 23,100 -2,211 Descending Boston Center
Mon 11:46:14 AM 44.0736 -74.4139 70° East 448 516 20,800 -2,164 Descending Boston Center
Mon 11:47:15 AM 44.1114 -74.2617 71° East 428 493 18,700 -1,669 Descending Boston Center
Mon 11:48:27 AM 44.1200 -74.1031 86° East 416 479 17,100 -1,714 Descending Boston Center
Mon 11:49:28 AM 44.1289 -73.9208 86° East 395 455 14,900 -2,017 Descending Boston Center
Mon 11:50:26 AM 44.1575 -73.7856 74° East 375 432 13,100 -1,613 Descending Boston Center
Mon 11:51:27 AM 44.2128 -73.7086 45° Northeast 336 387 11,700 -1,488 Descending Boston Center
Mon 11:52:27 AM 44.2928 -73.6089 42° Northeast 325 374 10,100 -1,729 Descending Boston Center
Mon 11:53:25 AM 44.3519 -73.5403 40° Northeast 295 339 8,300 -1,866 Descending Boston Center
Mon 11:54:26 AM 44.4108 -73.4717 40° Northeast 278 320 6,400 -1,884 Descending Boston Center
Mon 11:55:26 AM 44.4592 -73.4231 36° Northeast 268 308 4,500 -1,636 Descending Boston Center
Mon 11:56:27 AM 44.5139 -73.3542 42° Northeast 263 303 3,100 -1,109 Descending Boston Center
Mon 11:57:25 AM 44.5272 -73.2700 77° East 213 245 2,300 -900 Descending Boston Center
Mon 11:58:27 AM 44.5086 -73.2144 115° Southeast 163 188 1,300 -836 Descending Boston Center
Mon 11:59:27 AM 44.4861 -73.1761 129° Southeast 138 159 600 -700 Descending Boston Center

Login

Don't have an account? Register now (free) for customized features, flight alerts, and more!